createdAt,value
2018-06-16T02:03:34.898Z,0.00
2018-06-16T02:04:34.869Z,0.00
2018-06-16T02:06:27.831Z,0.00
2018-06-16T02:07:27.782Z,0.00
2018-06-16T02:09:20.806Z,0.00
2018-06-16T02:10:20.782Z,0.00
2018-06-16T02:11:20.772Z,0.00
2018-06-16T02:12:20.778Z,0.00
2018-06-16T02:13:20.764Z,0.00
2018-06-16T02:14:20.754Z,0.00
2018-06-16T02:15:20.742Z,0.00
2018-06-16T02:16:20.737Z,0.00
2018-06-16T02:17:20.727Z,0.00
2018-06-16T02:18:20.722Z,0.00
2018-06-16T02:19:20.715Z,0.00
2018-06-16T02:20:20.714Z,0.00
2018-06-16T02:21:20.693Z,0.00
2018-06-16T02:22:20.695Z,0.00
2018-06-16T02:23:20.680Z,0.00
2018-06-16T02:24:20.686Z,0.00
2018-06-16T02:25:20.674Z,0.00
2018-06-16T02:26:20.669Z,0.00
2018-06-16T02:27:20.665Z,0.00
2018-06-16T02:28:20.657Z,0.00
2018-06-16T02:29:20.665Z,0.00
2018-06-16T02:30:20.648Z,0.00
2018-06-16T02:31:20.644Z,0.00
2018-06-16T02:32:20.635Z,0.00
2018-06-16T02:33:20.631Z,0.00
2018-06-16T02:34:20.624Z,0.00
2018-06-16T02:35:20.628Z,0.00
2018-06-16T02:36:20.687Z,0.00
2018-06-16T02:37:20.695Z,0.00
2018-06-16T02:38:20.602Z,0.00
2018-06-16T02:39:20.600Z,4.00
2018-06-16T02:40:20.584Z,4.00
2018-06-16T02:41:20.584Z,4.00
2018-06-16T02:42:20.572Z,0.00
2018-06-16T02:43:20.586Z,0.00
2018-06-16T02:44:20.571Z,4.00
2018-06-16T02:45:20.585Z,4.00
2018-06-16T02:46:20.561Z,4.00
2018-06-16T02:47:20.556Z,4.00
2018-06-16T02:48:20.543Z,4.00
2018-06-16T02:49:20.539Z,8.00
2018-06-16T02:50:20.580Z,8.00
2018-06-16T02:51:20.540Z,8.00
2018-06-16T02:52:20.529Z,12.00
2018-06-16T02:53:20.527Z,12.00
2018-06-16T02:54:20.512Z,12.00
2018-06-16T02:55:20.515Z,16.00
2018-06-16T02:56:20.512Z,16.00
2018-06-16T02:57:20.503Z,20.00
2018-06-16T02:58:20.489Z,24.00
2018-06-16T02:59:20.489Z,28.00
2018-06-16T03:00:20.485Z,32.00
2018-06-16T03:01:20.481Z,36.00
2018-06-16T03:02:20.479Z,44.00
2018-06-16T03:03:20.512Z,48.00
2018-06-16T03:04:20.464Z,56.00
2018-06-16T03:05:20.459Z,60.00
2018-06-16T03:06:20.454Z,68.00
2018-06-16T03:07:20.464Z,76.00
2018-06-16T03:08:20.451Z,84.00
2018-06-16T03:09:20.438Z,96.00
2018-06-16T03:10:20.429Z,108.00
2018-06-16T03:11:20.425Z,120.00
2018-06-16T03:12:20.423Z,136.00
2018-06-16T03:13:20.408Z,148.00
2018-06-16T03:14:20.409Z,164.00
2018-06-16T03:15:20.436Z,184.00
2018-06-16T03:16:20.401Z,204.00
2018-06-16T03:17:20.392Z,224.00
2018-06-16T03:18:20.383Z,244.00
2018-06-16T03:19:20.386Z,268.00
2018-06-16T03:20:20.387Z,292.00
2018-06-16T03:21:20.369Z,316.00
2018-06-16T03:22:20.360Z,344.00
2018-06-16T03:23:20.360Z,372.00
2018-06-16T03:24:20.352Z,396.00
2018-06-16T03:25:20.345Z,428.00
2018-06-16T03:26:20.335Z,464.00
2018-06-16T03:27:20.337Z,496.00
2018-06-16T03:28:20.334Z,532.00
2018-06-16T03:29:20.326Z,568.00
2018-06-16T03:30:20.322Z,608.00
2018-06-16T03:31:20.349Z,648.00
2018-06-16T03:32:20.320Z,692.00
2018-06-16T03:33:20.305Z,732.00
2018-06-16T03:34:20.297Z,784.00
2018-06-16T03:35:20.302Z,832.00
2018-06-16T03:36:20.294Z,880.00
2018-06-16T03:37:20.284Z,932.00
2018-06-16T03:38:20.271Z,988.00
2018-06-16T03:39:20.278Z,1044.00
2018-06-16T03:40:20.263Z,1104.00
2018-06-16T03:41:20.263Z,1160.00
2018-06-16T03:42:20.265Z,1224.00
2018-06-16T03:43:20.256Z,1284.00
2018-06-16T03:44:20.239Z,1352.00
2018-06-16T03:45:20.244Z,1420.00
2018-06-16T03:46:20.236Z,1492.00
2018-06-16T03:47:20.246Z,1564.00
2018-06-16T03:48:20.223Z,1640.00
2018-06-16T03:49:20.215Z,1712.00
2018-06-16T03:50:20.217Z,1780.00
2018-06-16T03:51:20.211Z,1852.00
2018-06-16T03:52:20.225Z,1920.00
2018-06-16T03:53:20.200Z,1992.00
2018-06-16T03:54:20.191Z,2064.00
2018-06-16T03:55:20.188Z,2136.00
2018-06-16T03:56:20.204Z,2204.00
2018-06-16T03:57:20.179Z,2280.00
2018-06-16T03:58:20.172Z,2352.00
2018-06-16T03:59:20.218Z,2424.00
2018-06-16T04:00:20.182Z,2496.00
2018-06-16T04:01:20.159Z,2572.00
2018-06-16T04:02:20.154Z,2648.00
2018-06-16T04:03:20.250Z,2720.00
2018-06-16T04:04:20.144Z,2796.00
2018-06-16T04:05:20.141Z,2880.00
2018-06-16T04:06:20.134Z,2956.00
2018-06-16T04:07:20.127Z,3028.00
2018-06-16T04:08:20.125Z,3112.00
2018-06-16T04:09:20.122Z,3188.00
2018-06-16T04:10:20.114Z,3268.00
2018-06-16T04:11:20.105Z,3352.00
2018-06-16T04:12:20.107Z,3436.00
2018-06-16T04:13:20.103Z,3516.00
2018-06-16T04:14:20.097Z,3596.00
2018-06-16T04:15:20.095Z,3672.00
2018-06-16T04:16:20.088Z,3740.00
2018-06-16T04:17:20.138Z,3812.00
2018-06-16T04:18:20.079Z,3880.00
2018-06-16T04:19:20.097Z,3940.00
2018-06-16T04:20:20.068Z,4008.00
2018-06-16T04:21:20.066Z,4072.00
2018-06-16T04:22:20.060Z,4144.00
2018-06-16T04:23:20.069Z,4224.00
2018-06-16T04:24:20.058Z,4296.00
2018-06-16T04:25:20.048Z,4368.00
2018-06-16T04:26:20.045Z,4440.00
2018-06-16T04:27:20.041Z,4508.00
2018-06-16T04:28:20.051Z,4572.00
2018-06-16T04:29:20.023Z,4636.00
2018-06-16T04:30:20.028Z,4692.00
2018-06-16T04:31:20.026Z,4756.00
2018-06-16T04:32:20.021Z,4812.00
2018-06-16T04:33:20.035Z,4880.00
2018-06-16T04:34:20.011Z,4728.00
2018-06-16T04:35:20.002Z,4776.00
2018-06-16T04:36:19.995Z,4836.00
2018-06-16T04:37:20.000Z,4892.00
2018-06-16T04:38:19.996Z,4956.00
2018-06-16T04:39:19.993Z,5004.00
2018-06-16T04:40:19.994Z,5060.00
2018-06-16T04:41:19.987Z,5116.00
2018-06-16T04:42:19.979Z,5172.00
2018-06-16T04:43:19.975Z,5224.00
2018-06-16T04:44:19.971Z,5280.00
2018-06-16T04:45:19.991Z,5332.00
2018-06-16T04:46:19.963Z,5380.00
2018-06-16T04:47:19.961Z,5440.00
2018-06-16T04:48:19.948Z,5500.00
2018-06-16T04:49:19.949Z,5564.00
2018-06-16T04:50:19.941Z,5620.00
2018-06-16T04:51:19.966Z,5676.00
2018-06-16T04:52:19.938Z,5732.00
2018-06-16T04:53:19.962Z,5788.00
2018-06-16T04:54:19.953Z,5840.00
2018-06-16T04:55:19.926Z,5884.00
2018-06-16T04:56:19.925Z,5944.00
2018-06-16T04:57:19.922Z,5996.00
2018-06-16T04:58:19.919Z,6052.00
2018-06-16T04:59:19.918Z,6104.00
2018-06-16T05:00:19.917Z,6160.00
2018-06-16T05:01:19.932Z,6220.00
2018-06-16T05:02:20.003Z,6276.00
2018-06-16T05:03:19.902Z,6332.00
2018-06-16T05:04:20.021Z,6384.00
2018-06-16T05:05:20.022Z,6436.00
2018-06-16T05:06:19.888Z,6484.00
2018-06-16T05:07:19.886Z,6532.00
2018-06-16T05:08:19.880Z,6580.00
2018-06-16T05:09:19.879Z,6624.00
2018-06-16T05:10:19.888Z,6676.00
2018-06-16T05:11:19.865Z,6724.00
2018-06-16T05:12:19.871Z,6772.00
2018-06-16T05:13:19.871Z,6828.00
2018-06-16T05:14:19.864Z,6880.00
2018-06-16T05:15:19.852Z,6940.00
2018-06-16T05:16:19.867Z,6996.00
2018-06-16T05:17:19.843Z,7052.00
2018-06-16T05:18:19.847Z,7104.00
2018-06-16T05:19:19.844Z,7144.00
2018-06-16T05:20:19.845Z,7196.00
2018-06-16T05:21:19.914Z,7252.00
2018-06-16T05:22:19.850Z,7308.00
2018-06-16T05:23:19.835Z,7352.00
2018-06-16T05:24:19.831Z,7396.00
2018-06-16T05:25:19.829Z,7444.00
2018-06-16T05:26:19.823Z,7496.00
2018-06-16T05:27:19.825Z,7540.00
2018-06-16T05:28:19.819Z,7580.00
2018-06-16T05:29:19.814Z,7624.00
2018-06-16T05:30:19.809Z,7672.00
2018-06-16T05:31:19.813Z,7720.00
2018-06-16T05:32:19.805Z,7768.00
2018-06-16T05:33:19.803Z,7812.00
2018-06-16T05:34:19.798Z,7860.00
2018-06-16T05:35:19.797Z,7900.00
2018-06-16T05:36:19.811Z,7944.00
2018-06-16T05:37:19.785Z,7996.00
2018-06-16T05:38:19.811Z,8056.00
2018-06-16T05:39:19.982Z,8112.00
2018-06-16T05:40:19.782Z,8168.00
2018-06-16T05:41:19.784Z,8224.00
2018-06-16T05:42:19.781Z,8276.00
2018-06-16T05:43:19.776Z,8320.00
2018-06-16T05:44:19.772Z,8380.00
2018-06-16T05:45:19.792Z,8432.00
2018-06-16T05:46:19.768Z,8468.00
2018-06-16T05:47:19.791Z,8520.00
2018-06-16T05:48:19.752Z,8564.00
2018-06-16T05:49:19.756Z,8584.00
2018-06-16T05:50:19.762Z,8624.00
2018-06-16T05:51:19.812Z,8656.00
2018-06-16T05:52:19.755Z,8688.00
2018-06-16T05:53:19.790Z,8732.00
2018-06-16T05:54:19.746Z,8772.00
2018-06-16T05:55:19.800Z,8792.00
2018-06-16T05:56:19.740Z,8840.00
2018-06-16T05:57:19.747Z,8880.00
2018-06-16T05:58:19.770Z,8924.00
2018-06-16T05:59:19.737Z,8964.00
2018-06-16T06:00:19.779Z,9020.00
2018-06-16T06:01:19.754Z,9068.00
2018-06-16T06:02:19.746Z,9108.00
2018-06-16T06:03:19.782Z,9128.00
2018-06-16T06:04:19.724Z,9160.00
2018-06-16T06:05:19.723Z,9212.00
2018-06-16T06:06:19.742Z,9276.00
2018-06-16T06:07:19.715Z,9348.00
2018-06-16T06:08:19.918Z,9404.00
2018-06-16T06:09:19.747Z,9444.00
2018-06-16T06:10:19.762Z,9488.00
2018-06-16T06:11:19.707Z,9528.00
2018-06-16T06:12:19.703Z,9568.00
2018-06-16T06:13:19.701Z,9616.00
2018-06-16T06:14:19.699Z,9656.00
2018-06-16T06:15:19.745Z,9708.00
2018-06-16T06:16:19.694Z,9744.00
2018-06-16T06:17:19.708Z,9776.00
2018-06-16T06:18:19.695Z,9820.00
2018-06-16T06:19:19.691Z,9876.00
2018-06-16T06:20:19.702Z,9904.00
2018-06-16T06:21:19.687Z,9928.00
2018-06-16T06:22:19.685Z,9964.00
2018-06-16T06:23:19.684Z,10004.00
2018-06-16T06:24:19.691Z,10048.00
2018-06-16T06:25:19.681Z,10104.00
2018-06-16T06:26:19.674Z,10144.00
2018-06-16T06:27:19.676Z,10192.00
2018-06-16T06:28:19.676Z,10224.00
2018-06-16T06:29:19.670Z,10272.00
2018-06-16T06:30:19.674Z,10880.00
2018-06-16T06:31:19.675Z,10912.00
2018-06-16T06:32:19.670Z,10936.00
2018-06-16T06:33:19.662Z,10984.00
2018-06-16T06:34:19.668Z,11044.00
2018-06-16T06:35:19.665Z,11108.00
2018-06-16T06:36:19.662Z,11172.00
2018-06-16T06:37:19.663Z,11232.00
2018-06-16T06:38:19.656Z,11296.00
2018-06-16T06:39:19.830Z,11328.00
2018-06-16T06:40:19.651Z,11380.00
2018-06-16T06:41:19.693Z,11400.00
2018-06-16T06:42:19.709Z,11416.00
2018-06-16T06:43:19.664Z,11428.00
2018-06-16T06:44:19.660Z,11448.00
2018-06-16T06:45:19.656Z,11484.00
2018-06-16T06:46:19.651Z,11516.00
2018-06-16T06:47:19.806Z,11552.00
2018-06-16T06:48:19.651Z,11604.00
2018-06-16T06:49:19.673Z,11652.00
2018-06-16T06:50:19.648Z,11692.00
2018-06-16T06:51:19.648Z,11736.00
2018-06-16T06:52:19.703Z,11796.00
2018-06-16T06:53:19.645Z,11840.00
2018-06-16T06:54:19.648Z,11876.00
2018-06-16T06:55:19.647Z,11908.00
2018-06-16T06:56:19.651Z,11936.00
2018-06-16T06:57:19.661Z,11988.00
2018-06-16T06:58:19.644Z,12216.00
2018-06-16T06:59:19.643Z,12828.00
2018-06-16T07:00:19.743Z,13752.00
2018-06-16T07:01:19.648Z,17792.00
2018-06-16T07:02:19.728Z,38048.00
2018-06-16T07:03:19.657Z,55232.00
2018-06-16T07:04:19.655Z,54912.00
2018-06-16T07:05:19.654Z,57344.00
2018-06-16T07:06:19.644Z,58592.00
2018-06-16T07:07:19.663Z,58304.00
2018-06-16T07:08:19.660Z,60352.00
2018-06-16T07:09:19.657Z,67392.00
2018-06-16T07:10:19.691Z,60064.00
2018-06-16T07:11:19.681Z,63680.00
2018-06-16T07:12:19.690Z,63712.00
2018-06-16T07:13:19.694Z,58784.00
2018-06-16T07:14:19.690Z,65504.00
2018-06-16T07:15:19.696Z,62848.00
2018-06-16T07:16:19.701Z,61952.00
2018-06-16T07:17:19.733Z,65408.00
2018-06-16T07:18:19.730Z,61824.00
2018-06-16T07:19:19.737Z,65536.00
2018-06-16T07:20:19.736Z,70176.00
2018-06-16T07:21:19.756Z,71936.00
2018-06-16T07:22:19.759Z,67488.00
2018-06-16T07:23:19.760Z,62400.00
2018-06-16T07:24:19.783Z,64032.00
2018-06-16T07:25:19.791Z,66240.00
2018-06-16T07:26:19.801Z,70208.00
2018-06-16T07:27:19.811Z,66336.00
2018-06-16T07:28:19.824Z,61920.00
2018-06-16T07:29:19.860Z,72064.00
2018-06-16T07:30:19.844Z,70272.00
2018-06-16T07:31:19.847Z,68960.00
2018-06-16T07:32:19.851Z,71168.00
2018-06-16T07:33:19.892Z,70592.00
2018-06-16T07:34:19.899Z,73632.00
2018-06-16T07:35:19.918Z,70880.00
2018-06-16T07:36:19.944Z,70304.00
2018-06-16T07:37:19.941Z,74784.00
2018-06-16T07:38:19.939Z,77568.00
2018-06-16T07:39:20.004Z,78048.00
2018-06-16T07:40:19.958Z,75872.00
2018-06-16T07:41:19.982Z,73792.00
2018-06-16T07:42:20.008Z,80832.00
2018-06-16T07:43:20.027Z,81088.00
2018-06-16T07:44:20.012Z,78048.00
2018-06-16T07:45:20.018Z,79616.00
2018-06-16T07:46:20.043Z,80416.00
2018-06-16T07:47:20.073Z,81920.00
2018-06-16T07:48:20.065Z,85824.00
2018-06-16T07:49:20.098Z,82720.00
2018-06-16T07:50:20.105Z,79904.00
2018-06-16T07:51:20.145Z,79136.00
2018-06-16T07:52:20.146Z,85600.00
2018-06-16T07:53:20.134Z,85504.00
2018-06-16T07:54:20.153Z,86560.00
2018-06-16T07:55:20.172Z,90464.00
2018-06-16T07:56:20.176Z,91136.00
2018-06-16T07:57:20.226Z,90624.00
2018-06-16T07:58:20.361Z,86944.00
2018-06-16T07:59:20.236Z,87360.00
2018-06-16T08:00:20.375Z,87296.00
2018-06-16T08:01:21.281Z,88928.00
2018-06-16T08:02:20.349Z,88512.00
2018-06-16T08:03:20.353Z,88256.00
2018-06-16T08:04:20.462Z,84832.00
2018-06-16T08:05:20.426Z,81696.00
2018-06-16T08:06:20.544Z,93248.00
2018-06-16T08:07:20.453Z,94400.00
2018-06-16T08:08:20.509Z,84960.00
2018-06-16T08:09:20.429Z,83104.00
2018-06-16T08:10:20.436Z,85408.00
2018-06-16T08:11:20.433Z,93248.00
2018-06-16T08:12:20.448Z,89632.00
2018-06-16T08:13:20.451Z,88640.00
2018-06-16T08:14:20.513Z,87456.00
2018-06-16T08:15:20.587Z,80992.00
2018-06-16T08:16:20.686Z,80768.00
2018-06-16T08:17:20.693Z,80960.00
2018-06-16T08:18:20.528Z,84736.00
2018-06-16T08:19:20.543Z,82784.00
2018-06-16T08:20:20.556Z,83200.00
2018-06-16T08:21:20.552Z,86272.00
2018-06-16T08:22:20.566Z,80256.00
2018-06-16T08:23:20.586Z,75328.00
2018-06-16T08:24:20.612Z,80000.00
2018-06-16T08:25:20.654Z,81472.00
2018-06-16T08:26:20.646Z,75936.00
2018-06-16T08:27:20.663Z,74720.00
2018-06-16T08:28:20.676Z,80448.00
2018-06-16T08:29:20.710Z,83488.00
2018-06-16T08:30:20.693Z,84704.00
2018-06-16T08:31:20.730Z,85696.00
2018-06-16T08:32:20.727Z,78208.00
2018-06-16T08:33:20.777Z,79648.00
2018-06-16T08:34:20.783Z,84096.00
2018-06-16T08:35:20.851Z,83616.00
2018-06-16T08:36:20.864Z,81856.00
2018-06-16T08:37:20.864Z,85760.00
2018-06-16T08:38:20.853Z,87904.00
2018-06-16T08:39:20.860Z,78656.00
2018-06-16T08:40:20.873Z,79584.00
2018-06-16T08:41:20.898Z,87296.00
2018-06-16T08:42:20.897Z,86208.00
2018-06-16T08:43:20.976Z,86816.00
2018-06-16T08:44:20.940Z,84512.00
2018-06-16T08:45:20.955Z,82816.00
2018-06-16T08:46:20.972Z,83968.00
2018-06-16T08:47:20.997Z,87200.00
2018-06-16T08:48:21.072Z,89632.00
2018-06-16T08:49:21.051Z,91040.00
2018-06-16T08:50:21.046Z,89248.00
2018-06-16T08:51:21.071Z,86688.00
2018-06-16T08:52:21.088Z,86816.00
2018-06-16T08:53:21.103Z,88768.00
2018-06-16T08:54:21.114Z,88320.00
2018-06-16T08:55:21.157Z,89088.00
2018-06-16T08:56:21.155Z,88384.00
2018-06-16T08:57:21.179Z,83680.00
2018-06-16T08:58:21.195Z,82592.00
2018-06-16T08:59:21.202Z,83456.00
2018-06-16T09:00:21.224Z,79328.00
2018-06-16T09:01:21.239Z,83584.00
2018-06-16T09:02:21.253Z,90400.00
2018-06-16T09:03:21.277Z,87840.00
2018-06-16T09:04:21.292Z,88032.00
2018-06-16T09:05:21.304Z,91680.00
2018-06-16T09:06:21.338Z,94496.00
2018-06-16T09:07:21.340Z,94176.00
2018-06-16T09:08:21.353Z,86816.00
2018-06-16T09:09:21.376Z,87360.00
2018-06-16T09:10:21.381Z,93952.00
2018-06-16T09:11:21.404Z,92512.00
2018-06-16T09:12:21.445Z,91456.00
2018-06-16T09:13:21.458Z,92320.00
2018-06-16T09:14:21.458Z,95520.00
2018-06-16T09:15:21.486Z,98592.00
2018-06-16T09:16:21.527Z,99680.00
2018-06-16T09:17:21.715Z,102816.00
2018-06-16T09:18:21.531Z,106240.00
2018-06-16T09:19:21.553Z,110624.00
2018-06-16T09:20:21.571Z,108032.00
2018-06-16T09:21:21.591Z,111136.00
2018-06-16T09:22:21.621Z,116448.00
2018-06-16T09:23:21.629Z,109984.00
2018-06-16T09:24:21.691Z,106016.00
2018-06-16T09:25:21.673Z,100864.00
2018-06-16T09:26:21.716Z,91808.00
2018-06-16T09:27:21.700Z,91552.00
2018-06-16T09:28:21.724Z,99136.00
2018-06-16T09:29:21.742Z,107168.00
2018-06-16T09:30:21.751Z,111552.00
2018-06-16T09:31:21.771Z,107168.00
2018-06-16T09:32:21.789Z,96832.00
2018-06-16T09:33:21.850Z,88256.00
2018-06-16T09:34:21.815Z,85088.00
2018-06-16T09:35:21.851Z,81600.00
2018-06-16T09:36:21.863Z,79808.00
2018-06-16T09:37:21.878Z,79008.00
2018-06-16T09:38:21.900Z,82208.00
2018-06-16T09:39:21.923Z,92064.00
2018-06-16T09:40:21.945Z,93984.00
2018-06-16T09:41:21.964Z,94464.00
2018-06-16T09:42:22.044Z,101056.00
2018-06-16T09:43:22.025Z,105248.00
2018-06-16T09:44:22.024Z,107264.00
2018-06-16T09:45:22.034Z,103520.00
2018-06-16T09:46:22.038Z,102848.00
2018-06-16T09:47:22.086Z,99200.00
2018-06-16T09:48:22.089Z,93600.00
2018-06-16T09:49:22.100Z,100000.00
2018-06-16T09:50:22.134Z,111296.00
2018-06-16T09:51:22.140Z,108160.00
2018-06-16T09:52:22.154Z,109472.00
2018-06-16T09:53:22.174Z,116256.00
2018-06-16T09:54:22.194Z,113984.00
2018-06-16T09:55:22.213Z,108288.00
2018-06-16T09:56:22.232Z,110240.00
2018-06-16T09:57:22.269Z,101664.00
2018-06-16T09:58:22.268Z,96032.00
2018-06-16T09:59:22.280Z,88448.00
2018-06-16T10:00:22.300Z,105856.00
2018-06-16T10:01:22.327Z,111264.00
2018-06-16T10:02:22.349Z,112096.00
2018-06-16T10:03:22.403Z,111296.00
2018-06-16T10:04:22.421Z,117728.00
2018-06-16T10:05:22.403Z,113120.00
2018-06-16T10:06:22.416Z,100384.00
2018-06-16T10:07:22.517Z,88896.00
2018-06-16T10:08:22.462Z,102816.00
2018-06-16T10:09:22.496Z,117184.00
2018-06-16T10:10:22.491Z,119808.00
2018-06-16T10:11:22.510Z,110624.00
2018-06-16T10:12:22.526Z,104928.00
2018-06-16T10:13:22.564Z,106624.00
2018-06-16T10:14:22.564Z,112800.00
2018-06-16T10:15:22.590Z,112288.00
2018-06-16T10:16:22.604Z,112320.00
2018-06-16T10:17:22.645Z,111392.00
2018-06-16T10:18:22.677Z,111232.00
2018-06-16T10:19:22.677Z,109120.00
2018-06-16T10:20:22.765Z,107680.00
2018-06-16T10:21:23.102Z,104288.00
2018-06-16T10:22:22.761Z,110304.00
2018-06-16T10:23:22.758Z,58560.00
2018-06-16T10:24:22.829Z,59392.00
2018-06-16T10:25:22.814Z,106272.00
2018-06-16T10:26:22.813Z,100224.00
2018-06-16T10:27:22.854Z,100736.00
2018-06-16T10:28:22.854Z,104768.00
2018-06-16T10:29:22.860Z,101856.00
2018-06-16T10:30:22.881Z,99872.00
2018-06-16T10:31:22.926Z,99008.00
2018-06-16T10:32:22.916Z,97920.00
2018-06-16T10:33:22.936Z,92000.00
2018-06-16T10:34:22.948Z,88096.00
2018-06-16T10:35:22.968Z,90944.00
2018-06-16T10:36:23.014Z,90272.00
2018-06-16T10:37:23.011Z,21952.00
2018-06-16T10:38:23.025Z,23232.00
2018-06-16T10:39:23.035Z,25248.00
2018-06-16T10:40:23.072Z,101824.00
2018-06-16T10:41:23.072Z,101728.00
2018-06-16T10:42:23.091Z,97888.00
2018-06-16T10:43:23.113Z,100128.00
2018-06-16T10:44:23.117Z,98464.00
2018-06-16T10:45:23.145Z,92288.00
2018-06-16T10:46:23.152Z,99680.00
2018-06-16T10:47:23.177Z,100384.00
2018-06-16T10:48:23.202Z,100128.00
2018-06-16T10:49:23.204Z,97792.00
2018-06-16T10:50:23.250Z,96416.00
2018-06-16T10:51:23.237Z,88832.00
2018-06-16T10:52:23.259Z,77344.00
2018-06-16T10:53:23.265Z,85056.00
2018-06-16T10:54:23.285Z,93184.00
2018-06-16T10:55:23.327Z,92224.00
2018-06-16T10:56:23.312Z,91360.00
2018-06-16T10:57:23.359Z,90592.00
2018-06-16T10:58:23.355Z,92672.00
2018-06-16T10:59:23.376Z,90912.00
2018-06-16T11:00:23.511Z,89792.00
2018-06-16T11:01:23.415Z,94176.00
2018-06-16T11:02:23.427Z,96096.00
2018-06-16T11:03:23.453Z,94848.00
2018-06-16T11:04:23.459Z,95040.00
2018-06-16T11:05:23.485Z,95488.00
2018-06-16T11:06:23.500Z,95328.00
2018-06-16T11:07:23.589Z,91040.00
2018-06-16T11:08:23.552Z,88416.00
2018-06-16T11:09:23.762Z,90016.00
2018-06-16T11:10:23.569Z,92160.00
2018-06-16T11:11:23.585Z,90336.00
2018-06-16T11:12:23.605Z,92608.00
2018-06-16T11:13:23.675Z,95712.00
2018-06-16T11:14:23.644Z,88928.00
2018-06-16T11:15:23.664Z,83104.00
2018-06-16T11:16:23.710Z,86976.00
2018-06-16T11:17:23.709Z,90688.00
2018-06-16T11:18:24.336Z,88256.00
2018-06-16T11:19:23.792Z,87328.00
2018-06-16T11:20:23.745Z,86784.00
2018-06-16T11:21:23.817Z,87520.00
2018-06-16T11:22:23.797Z,88576.00
2018-06-16T11:23:23.799Z,93248.00
2018-06-16T11:24:23.830Z,91424.00
2018-06-16T11:25:23.869Z,87904.00
2018-06-16T11:26:23.937Z,85504.00
2018-06-16T11:27:23.893Z,84896.00
2018-06-16T11:28:23.919Z,85920.00
2018-06-16T11:29:23.944Z,90752.00
2018-06-16T11:30:23.945Z,88960.00
2018-06-16T11:31:23.932Z,89728.00
2018-06-16T11:32:23.964Z,90656.00
2018-06-16T11:33:24.039Z,88320.00
2018-06-16T11:34:24.032Z,88832.00
2018-06-16T11:35:24.051Z,91936.00
2018-06-16T11:36:24.089Z,93920.00
2018-06-16T11:37:24.052Z,95776.00
2018-06-16T11:38:24.112Z,93504.00
2018-06-16T11:39:24.074Z,90528.00
2018-06-16T11:40:24.097Z,90816.00
2018-06-16T11:41:24.115Z,94208.00
2018-06-16T11:42:24.136Z,95136.00
2018-06-16T11:43:24.150Z,93248.00
2018-06-16T11:44:24.175Z,94432.00
2018-06-16T11:45:24.191Z,99552.00
2018-06-16T11:46:24.285Z,102784.00
2018-06-16T11:47:24.307Z,99520.00
2018-06-16T11:48:24.261Z,95360.00
2018-06-16T11:49:24.247Z,91328.00
2018-06-16T11:50:24.326Z,84256.00
2018-06-16T11:51:24.340Z,39808.00
2018-06-16T11:52:24.363Z,39520.00
2018-06-16T11:53:24.367Z,29280.00
2018-06-16T11:54:24.421Z,25824.00
2018-06-16T11:55:24.374Z,27264.00
2018-06-16T11:56:24.639Z,36160.00
2018-06-16T11:57:24.508Z,69344.00
2018-06-16T11:58:24.420Z,85728.00
2018-06-16T11:59:24.447Z,56480.00
2018-06-16T12:00:24.435Z,81024.00
2018-06-16T12:01:24.447Z,100736.00
2018-06-16T12:02:24.474Z,73024.00
2018-06-16T12:03:24.608Z,88928.00
2018-06-16T12:04:25.196Z,94304.00
2018-06-16T12:05:24.531Z,93024.00
2018-06-16T12:06:24.520Z,68256.00
2018-06-16T12:07:24.528Z,76864.00
2018-06-16T12:08:24.592Z,87840.00
2018-06-16T12:09:24.552Z,25280.00
2018-06-16T12:10:24.566Z,22848.00
2018-06-16T12:11:24.604Z,27232.00
2018-06-16T12:12:24.595Z,21600.00
2018-06-16T12:13:24.606Z,27360.00
2018-06-16T12:14:24.668Z,51072.00
2018-06-16T12:15:24.691Z,98272.00
2018-06-16T12:16:24.650Z,80864.00
2018-06-16T12:17:24.672Z,100640.00
2018-06-16T12:18:24.697Z,107616.00
2018-06-16T12:19:24.691Z,106720.00
2018-06-16T12:20:24.704Z,103680.00
2018-06-16T12:21:24.709Z,111360.00
2018-06-16T12:22:24.727Z,110336.00
2018-06-16T12:23:24.769Z,101600.00
2018-06-16T12:24:24.789Z,100704.00
2018-06-16T12:25:24.765Z,106400.00
2018-06-16T12:26:24.762Z,104320.00
2018-06-16T12:27:24.803Z,103072.00
2018-06-16T12:28:24.830Z,111968.00
2018-06-16T12:29:24.798Z,120064.00
2018-06-16T12:30:24.831Z,126624.00
2018-06-16T12:31:24.836Z,128800.00
2018-06-16T12:32:24.845Z,123648.00
2018-06-16T12:33:25.011Z,116896.00
2018-06-16T12:34:24.891Z,108384.00
2018-06-16T12:35:24.908Z,103424.00
2018-06-16T12:36:24.907Z,94720.00
2018-06-16T12:37:24.926Z,42304.00
2018-06-16T12:38:24.924Z,12872.00
2018-06-16T12:39:24.944Z,11664.00
2018-06-16T12:40:24.963Z,10996.00
2018-06-16T12:41:25.044Z,10492.00
2018-06-16T12:42:24.988Z,10208.00
2018-06-16T12:43:25.001Z,10108.00
2018-06-16T12:44:25.038Z,10052.00
2018-06-16T12:45:25.050Z,9968.00
2018-06-16T12:46:25.031Z,10136.00
2018-06-16T12:47:25.109Z,10148.00
2018-06-16T12:48:25.111Z,9932.00
2018-06-16T12:49:25.067Z,9712.00
2018-06-16T12:50:25.091Z,9584.00
2018-06-16T12:51:25.087Z,9416.00
2018-06-16T12:52:25.083Z,9232.00
2018-06-16T12:53:25.099Z,9112.00
2018-06-16T12:54:25.114Z,9000.00
2018-06-16T12:55:25.136Z,8892.00
2018-06-16T12:56:25.120Z,8812.00
2018-06-16T12:57:25.122Z,8728.00
2018-06-16T12:58:25.172Z,8640.00
2018-06-16T12:59:25.139Z,8560.00
2018-06-16T13:00:25.137Z,8496.00
2018-06-16T13:01:25.151Z,8452.00
2018-06-16T13:02:25.154Z,8452.00
2018-06-16T13:03:25.166Z,8388.00
2018-06-16T13:04:25.170Z,8332.00
2018-06-16T13:05:25.165Z,8356.00
2018-06-16T13:06:25.168Z,8416.00
2018-06-16T13:07:25.166Z,8468.00
2018-06-16T13:08:25.172Z,8508.00
2018-06-16T13:09:25.182Z,8528.00
2018-06-16T13:10:25.215Z,8540.00
2018-06-16T13:11:25.230Z,8600.00
2018-06-16T13:12:25.204Z,8772.00
2018-06-16T13:13:25.239Z,8636.00
2018-06-16T13:14:25.208Z,8508.00
2018-06-16T13:15:25.215Z,8376.00
2018-06-16T13:16:25.244Z,8300.00
2018-06-16T13:17:25.223Z,8268.00
2018-06-16T13:18:25.209Z,8236.00
2018-06-16T13:19:25.225Z,8240.00
2018-06-16T13:20:25.219Z,8212.00
2018-06-16T13:21:25.231Z,8120.00
2018-06-16T13:22:25.323Z,8052.00
2018-06-16T13:23:25.349Z,8044.00
2018-06-16T13:24:25.359Z,8064.00
2018-06-16T13:25:25.306Z,8048.00
2018-06-16T13:26:25.396Z,8032.00
2018-06-16T13:27:25.367Z,8028.00
2018-06-16T13:28:25.265Z,8020.00
2018-06-16T13:29:25.380Z,8032.00
2018-06-16T13:30:25.407Z,8076.00
2018-06-16T13:31:25.359Z,8064.00
2018-06-16T13:32:25.311Z,7972.00
2018-06-16T13:33:25.407Z,7960.00
2018-06-16T13:34:25.413Z,8084.00
2018-06-16T13:35:25.457Z,8140.00
2018-06-16T13:36:25.455Z,8136.00
2018-06-16T13:37:25.429Z,7868.00
2018-06-16T13:38:25.461Z,7900.00
2018-06-16T13:39:25.279Z,7892.00
2018-06-16T13:40:25.278Z,7924.00
2018-06-16T13:41:25.283Z,8012.00
2018-06-16T13:42:25.280Z,7992.00
2018-06-16T13:43:25.289Z,7908.00
2018-06-16T13:44:25.286Z,7908.00
2018-06-16T13:45:25.310Z,7940.00
2018-06-16T13:46:25.307Z,7980.00
2018-06-16T13:47:25.304Z,8004.00
2018-06-16T13:48:25.364Z,8020.00
2018-06-16T13:49:25.299Z,8016.00
2018-06-16T13:50:25.303Z,7980.00
2018-06-16T13:51:25.299Z,8016.00
2018-06-16T13:52:25.341Z,8044.00
2018-06-16T13:53:25.317Z,8092.00
2018-06-16T13:54:25.313Z,8136.00
2018-06-16T13:55:25.302Z,8204.00
2018-06-16T13:56:25.310Z,8304.00
2018-06-16T13:57:25.314Z,8372.00
2018-06-16T13:58:25.368Z,8312.00
2018-06-16T13:59:25.323Z,8272.00
2018-06-16T14:00:25.318Z,8228.00
2018-06-16T14:01:25.321Z,8144.00
2018-06-16T14:02:25.343Z,8120.00
2018-06-16T14:03:25.352Z,8132.00